createdAt,value
2022-12-05T00:03:24.098Z,22.02
2022-12-05T00:08:25.480Z,22.02
2022-12-05T00:13:26.842Z,21.98
2022-12-05T00:18:28.216Z,22.03
2022-12-05T00:23:29.947Z,21.99
2022-12-05T00:28:34.246Z,21.98
2022-12-05T00:33:35.655Z,22.00
2022-12-05T00:38:37.054Z,22.01
2022-12-05T00:43:38.507Z,21.99
2022-12-05T00:48:39.953Z,22.02
2022-12-05T00:53:41.443Z,22.04
2022-12-05T00:58:42.868Z,22.04
2022-12-05T01:03:44.537Z,21.97
2022-12-05T01:08:45.900Z,22.00
2022-12-05T01:13:47.311Z,21.99
2022-12-05T01:18:48.690Z,22.00
2022-12-05T01:23:50.099Z,22.00
2022-12-05T01:28:51.603Z,22.03
2022-12-05T01:33:53.805Z,22.01
2022-12-05T01:38:55.418Z,22.01
2022-12-05T01:44:03.590Z,22.02
2022-12-05T01:49:14.330Z,22.01
2022-12-05T01:54:16.519Z,22.01
2022-12-05T01:59:17.987Z,22.01
2022-12-05T02:04:19.395Z,22.02
2022-12-05T02:09:21.453Z,21.98
2022-12-05T02:14:39.788Z,21.98
2022-12-05T02:20:00.291Z,21.92
2022-12-05T02:25:37.318Z,21.98
2022-12-05T02:30:40.206Z,22.01
2022-12-05T02:36:02.954Z,22.05
2022-12-05T02:41:48.350Z,22.06
2022-12-05T02:46:49.578Z,21.95
2022-12-05T02:51:53.452Z,21.95
2022-12-05T02:56:54.946Z,21.96
2022-12-05T03:01:56.318Z,22.01
2022-12-05T03:07:04.895Z,22.00
2022-12-05T03:12:08.540Z,22.02
2022-12-05T03:17:11.577Z,22.04
2022-12-05T03:22:18.742Z,22.01
2022-12-05T03:27:33.908Z,21.98
2022-12-05T03:33:06.244Z,22.00
2022-12-05T03:38:13.316Z,21.94
2022-12-05T03:43:23.452Z,21.96
2022-12-05T03:48:43.620Z,22.00
2022-12-05T03:53:51.407Z,21.95
2022-12-05T03:59:01.588Z,21.94
2022-12-05T04:04:10.936Z,21.90
2022-12-05T04:09:28.046Z,21.85
2022-12-05T04:14:40.185Z,21.88
2022-12-05T04:20:20.360Z,21.94
2022-12-05T04:25:33.650Z,22.00
2022-12-05T04:30:41.219Z,22.06
2022-12-05T04:36:03.010Z,21.95
2022-12-05T04:41:06.436Z,21.96
2022-12-05T04:46:10.045Z,22.00
2022-12-05T04:51:13.198Z,22.00
2022-12-05T04:56:15.615Z,21.98
2022-12-05T05:01:22.886Z,21.98
2022-12-05T05:06:24.374Z,21.97
2022-12-05T05:11:29.886Z,21.95
2022-12-05T05:16:36.333Z,21.99
2022-12-05T05:21:39.136Z,21.99
2022-12-05T05:26:41.731Z,22.02
2022-12-05T05:31:43.158Z,22.02
2022-12-05T05:36:44.578Z,21.99
2022-12-05T05:41:45.956Z,22.01
2022-12-05T05:46:47.369Z,22.03
2022-12-05T05:51:48.792Z,22.05
2022-12-05T05:56:50.171Z,22.08
2022-12-05T06:01:51.542Z,22.08
2022-12-05T06:06:52.904Z,22.08
2022-12-05T06:11:54.299Z,22.08
2022-12-05T06:16:55.767Z,22.12
2022-12-05T06:21:57.190Z,22.10
2022-12-05T06:26:58.559Z,22.11
2022-12-05T06:32:00.003Z,22.11
2022-12-05T06:37:01.522Z,22.12
2022-12-05T06:42:02.983Z,22.11
2022-12-05T06:47:04.364Z,22.12
2022-12-05T06:52:05.824Z,22.11
2022-12-05T06:57:07.437Z,22.11
2022-12-05T07:02:14.301Z,22.08
2022-12-05T07:07:15.755Z,22.09
2022-12-05T07:12:18.047Z,22.19
2022-12-05T07:17:19.499Z,22.29
2022-12-05T07:22:21.849Z,22.34
2022-12-05T07:27:27.201Z,22.42
2022-12-05T07:32:32.146Z,22.45
2022-12-05T07:37:33.524Z,22.51
2022-12-05T07:42:34.960Z,22.54
2022-12-05T07:47:36.405Z,22.56
2022-12-05T07:52:37.824Z,22.69
2022-12-05T07:57:39.204Z,22.68
2022-12-05T08:02:41.091Z,22.71
2022-12-05T08:07:42.702Z,22.74
2022-12-05T08:12:44.172Z,22.76
2022-12-05T08:17:45.544Z,22.69
2022-12-05T08:22:46.932Z,22.72
2022-12-05T08:27:48.327Z,22.82
2022-12-05T08:32:49.695Z,22.87
2022-12-05T08:37:51.964Z,22.83
2022-12-05T08:42:53.332Z,22.90
2022-12-05T08:47:54.720Z,22.91
2022-12-05T08:52:56.080Z,22.94
2022-12-05T08:57:57.449Z,22.92
2022-12-05T09:02:59.161Z,22.90
2022-12-05T09:08:00.721Z,22.90
2022-12-05T09:13:02.227Z,22.93
2022-12-05T09:18:03.640Z,22.95
2022-12-05T09:23:05.013Z,23.00
2022-12-05T09:28:06.396Z,23.02
2022-12-05T09:33:07.804Z,22.98
2022-12-05T09:38:09.172Z,22.94
2022-12-05T09:43:25.694Z,22.99
2022-12-05T09:48:27.072Z,22.97
2022-12-05T09:53:35.779Z,23.01
2022-12-05T09:58:42.971Z,23.02
2022-12-05T10:03:58.979Z,23.00
2022-12-05T10:09:31.227Z,22.97
2022-12-05T10:14:36.339Z,22.97
2022-12-05T10:19:39.924Z,23.01
2022-12-05T10:24:56.321Z,23.00
2022-12-05T10:29:58.551Z,22.99
2022-12-05T10:35:02.339Z,23.04
2022-12-05T10:40:03.864Z,23.02
2022-12-05T10:45:07.244Z,23.06
2022-12-05T10:50:27.680Z,23.09
2022-12-05T10:55:32.292Z,23.02
2022-12-05T11:00:33.699Z,23.04
2022-12-05T11:05:35.244Z,23.02
2022-12-05T11:10:37.669Z,23.11
2022-12-05T11:15:39.157Z,23.15
2022-12-05T11:20:41.131Z,23.12
2022-12-05T11:25:42.507Z,23.09
2022-12-05T11:30:58.463Z,23.10
2022-12-05T11:36:11.432Z,23.07
2022-12-05T11:41:39.108Z,23.13
2022-12-05T11:47:04.471Z,23.14
2022-12-05T11:52:22.809Z,23.12
2022-12-05T11:57:56.540Z,23.12
2022-12-05T12:03:33.354Z,23.09
2022-12-05T12:09:01.140Z,23.16
2022-12-05T12:14:20.365Z,23.12
2022-12-05T12:19:47.835Z,23.11
2022-12-05T12:25:11.955Z,23.10
2022-12-05T12:30:17.467Z,23.09
2022-12-05T12:35:29.824Z,23.07
2022-12-05T12:40:35.004Z,23.08
2022-12-05T12:45:51.213Z,23.08
2022-12-05T12:50:53.968Z,23.08
2022-12-05T12:56:23.067Z,23.04
2022-12-05T13:01:53.256Z,23.11
2022-12-05T13:06:58.467Z,23.06
2022-12-05T13:12:05.022Z,23.12
2022-12-05T13:17:06.678Z,23.12
2022-12-05T13:22:08.700Z,23.09
2022-12-05T13:27:15.354Z,23.05
2022-12-05T13:32:34.248Z,23.07
2022-12-05T13:37:54.230Z,23.04
2022-12-05T13:43:02.856Z,23.06
2022-12-05T13:48:14.369Z,23.07
2022-12-05T13:53:37.535Z,23.06
2022-12-05T13:58:45.874Z,22.96
2022-12-05T14:03:47.085Z,22.91
2022-12-05T14:08:52.802Z,22.91
2022-12-05T14:13:54.553Z,22.87
2022-12-05T14:19:24.455Z,22.80
2022-12-05T14:25:00.141Z,22.79
2022-12-05T14:30:05.583Z,22.75
2022-12-05T14:35:29.659Z,22.78
2022-12-05T14:40:38.104Z,22.73
2022-12-05T14:45:40.852Z,22.70
2022-12-05T14:50:49.430Z,22.64
2022-12-05T14:55:56.082Z,22.60
2022-12-05T15:01:01.978Z,22.59
2022-12-05T15:06:04.906Z,22.61
2022-12-05T15:11:06.280Z,22.73
2022-12-05T15:16:15.782Z,22.69
2022-12-05T15:21:44.747Z,22.69
2022-12-05T15:26:58.598Z,22.56
2022-12-05T15:32:15.886Z,22.49
2022-12-05T15:37:36.855Z,22.50
2022-12-05T15:43:01.618Z,22.57
2022-12-05T15:48:02.828Z,22.52
2022-12-05T15:53:10.267Z,22.48
2022-12-05T15:58:27.611Z,22.49
2022-12-05T16:03:41.413Z,22.52
2022-12-05T16:08:46.379Z,22.50
2022-12-05T16:13:49.593Z,22.45
2022-12-05T16:18:53.401Z,22.48
2022-12-05T16:24:00.356Z,22.49
2022-12-05T16:29:02.039Z,22.47
2022-12-05T16:34:05.325Z,22.47
2022-12-05T16:39:07.090Z,22.49
2022-12-05T16:44:26.629Z,22.51
2022-12-05T16:49:30.961Z,22.45
2022-12-05T16:54:32.367Z,22.39
2022-12-05T16:59:37.586Z,22.41
2022-12-05T17:04:39.051Z,22.42
2022-12-05T17:09:40.545Z,22.41
2022-12-05T17:14:41.960Z,22.37
2022-12-05T17:19:43.399Z,22.37
2022-12-05T17:24:44.819Z,22.36
2022-12-05T17:29:46.244Z,22.39
2022-12-05T17:34:47.624Z,22.41
2022-12-05T17:39:48.999Z,22.38
2022-12-05T17:44:50.369Z,22.37
2022-12-05T17:49:51.748Z,22.30
2022-12-05T17:54:53.136Z,22.32
2022-12-05T17:59:54.517Z,22.34
2022-12-05T18:04:56.338Z,22.37
2022-12-05T18:09:57.955Z,22.30
2022-12-05T18:14:59.588Z,22.32
2022-12-05T18:20:01.188Z,22.30
2022-12-05T18:25:03.426Z,22.33
2022-12-05T18:30:05.567Z,22.33
2022-12-05T18:35:12.672Z,22.34
2022-12-05T18:40:14.832Z,22.30
2022-12-05T18:45:16.273Z,22.29
2022-12-05T18:50:17.639Z,22.30
2022-12-05T18:55:27.010Z,22.29
2022-12-05T19:00:39.696Z,22.31
2022-12-05T19:05:43.154Z,22.34
2022-12-05T19:10:44.535Z,22.35
2022-12-05T19:15:48.682Z,22.35
2022-12-05T19:20:51.088Z,22.34
2022-12-05T19:25:59.149Z,22.35
2022-12-05T19:31:04.667Z,22.33
2022-12-05T19:36:11.444Z,22.30
2022-12-05T19:41:14.476Z,22.30
2022-12-05T19:46:18.833Z,22.37
2022-12-05T19:51:20.344Z,22.34
2022-12-05T19:56:23.060Z,22.34
2022-12-05T20:01:26.174Z,22.28
2022-12-05T20:06:51.628Z,22.27
2022-12-05T20:11:55.531Z,22.29
2022-12-05T20:16:57.186Z,22.32
2022-12-05T20:21:58.652Z,22.33
2022-12-05T20:27:01.506Z,22.33
2022-12-05T20:32:03.267Z,22.33
2022-12-05T20:37:04.623Z,22.32
2022-12-05T20:42:06.082Z,22.30
2022-12-05T20:47:07.484Z,22.31
2022-12-05T20:52:08.852Z,22.30
2022-12-05T20:57:10.232Z,22.36
2022-12-05T21:02:11.662Z,22.31
2022-12-05T21:07:13.045Z,22.29
2022-12-05T21:12:14.416Z,22.26
2022-12-05T21:17:15.779Z,22.30
2022-12-05T21:22:17.168Z,22.31
2022-12-05T21:27:19.777Z,22.32
2022-12-05T21:32:21.176Z,22.30
2022-12-05T21:37:22.552Z,22.27
2022-12-05T21:42:23.925Z,22.28
2022-12-05T21:47:25.344Z,22.22
2022-12-05T21:52:26.710Z,22.25
2022-12-05T21:57:29.212Z,22.30
2022-12-05T22:02:30.635Z,22.29
2022-12-05T22:07:32.090Z,22.29
2022-12-05T22:12:33.908Z,22.27
2022-12-05T22:17:35.543Z,22.28
2022-12-05T22:22:36.935Z,22.27
2022-12-05T22:27:38.296Z,22.22
2022-12-05T22:32:40.052Z,22.26
2022-12-05T22:37:41.407Z,22.26
2022-12-05T22:42:42.851Z,22.35
2022-12-05T22:47:44.219Z,22.29
2022-12-05T22:52:45.589Z,22.26
2022-12-05T22:57:46.992Z,22.25
2022-12-05T23:02:48.415Z,22.26
2022-12-05T23:07:49.853Z,22.27
2022-12-05T23:12:51.255Z,22.23
2022-12-05T23:17:52.640Z,22.19
2022-12-05T23:22:53.999Z,22.20
2022-12-05T23:27:55.380Z,22.21
2022-12-05T23:32:56.789Z,22.25
2022-12-05T23:37:58.159Z,22.27
2022-12-05T23:42:59.543Z,22.25
2022-12-05T23:48:04.525Z,22.21
2022-12-05T23:53:06.428Z,22.24
2022-12-05T23:58:07.795Z,22.23
